»·PEaware :: DFGCW KGEG-KMSO

DFGCW :: KGEG-KMSO

FLIGHT INFORMATION

Flight Status: Arrived
Operator: Unknown
More flights by this operator :: More flights under this callsign
Pilot: Klaus A. (15485)
Aircraft: PILATUS PC-12 EAGLE
(PC12)
More flights by this aircraft type
Origin: KGEG Spokane Intl
United States
Destination: KMSO Missoula Intl
United States
More flights between these airports :: More routes between these airports
Route: GEG V2 MSO
File this flight plan on PilotEdge
Remarks: PBN / D2 DOF / 180715 REG / DFGCW EET / KZLC0031 PER / B RMK / TCAS SIMBRIEF
Altitude:
(Current/Filed)
17,000ft
Speed:
(Current/Filed)
275kts
Departed: 15-Jul-18 08:04 AM
Arrived: 15-Jul-18 08:49 AM
Distance/Time
Traveled:
147nm/0:45
Distance/Time
To Go:
Arrived

Flight Plot

Page will automatically refresh every two minutes.

Flight plan parsing failed; only flown route is shown


Map Options




Map Legend


Flown Route
Filed Route
Departure Airport
Arrival Airport
Navaid (VOR, NDB)
Fix

Horizontal Profiles

Position Reports

Time Latitude Longitude Heading Altitude Ground
Speed
15-Jul-18 07:36 47.620419 -117.528554 0 2389ft 0kts
15-Jul-18 07:37 47.620419 -117.528554 0 2389ft 0kts
15-Jul-18 07:38 47.620419 -117.528554 0 2389ft 0kts
15-Jul-18 07:39 47.620419 -117.528554 0 2389ft 0kts
15-Jul-18 07:40 47.620419 -117.528554 0 2389ft 0kts
15-Jul-18 07:41 47.620419 -117.528554 0 2389ft 0kts
15-Jul-18 07:42 47.620419 -117.528554 0 2389ft 0kts
15-Jul-18 07:43 47.620419 -117.528554 0 2389ft 0kts
15-Jul-18 07:44 47.620419 -117.528554 0 2389ft 0kts
15-Jul-18 07:45 47.620419 -117.528554 0 2389ft 0kts
15-Jul-18 07:46 47.620420 -117.528554 0 2389ft 0kts
15-Jul-18 07:47 47.620420 -117.528554 359 2389ft 0kts
15-Jul-18 07:48 47.620420 -117.528554 0 2389ft 0kts
15-Jul-18 07:49 47.620420 -117.528554 0 2389ft 0kts
15-Jul-18 07:50 47.620420 -117.528554 359 2389ft 0kts
15-Jul-18 07:51 47.620420 -117.528554 360 2389ft 0kts
15-Jul-18 07:52 47.620420 -117.528554 360 2389ft 0kts
15-Jul-18 07:53 47.620420 -117.528554 360 2389ft 0kts
15-Jul-18 07:54 47.620420 -117.528554 360 2389ft 0kts
15-Jul-18 07:55 47.620420 -117.528554 360 2389ft 0kts
15-Jul-18 07:56 47.620420 -117.528554 360 2389ft 0kts
15-Jul-18 07:57 47.620420 -117.528554 360 2389ft 0kts
15-Jul-18 07:58 47.620446 -117.528552 3 2389ft 1kts
15-Jul-18 07:59 47.620170 -117.531354 226 2389ft 17kts
15-Jul-18 08:00 47.617944 -117.532272 90 2389ft 12kts
15-Jul-18 08:01 47.617911 -117.525578 90 2390ft 19kts
15-Jul-18 08:02 47.617635 -117.520262 168 2390ft 0kts
15-Jul-18 08:03 47.617635 -117.520262 168 2390ft 0kts
15-Jul-18 08:04 47.617635 -117.520262 168 2390ft 0kts
15-Jul-18 08:05 47.616864 -117.528976 261 2390ft 107kts
15-Jul-18 08:06 47.600437 -117.577266 222 3967ft 162kts
15-Jul-18 08:07 47.565612 -117.617344 196 6178ft 159kts
15-Jul-18 08:08 47.548307 -117.564516 97 8103ft 156kts
15-Jul-18 08:09 47.543273 -117.494067 99 9442ft 185kts
15-Jul-18 08:10 47.534257 -117.421748 111 10986ft 191kts
15-Jul-18 08:11 47.521347 -117.346720 98 12383ft 194kts
15-Jul-18 08:12 47.515522 -117.271486 94 13539ft 199kts
15-Jul-18 08:13 47.511963 -117.188896 92 14685ft 204kts
15-Jul-18 08:14 47.509273 -117.106746 92 15729ft 208kts
15-Jul-18 08:15 47.506652 -117.020484 92 16839ft 212kts
15-Jul-18 08:16 47.503734 -116.925103 92 17070ft 256kts
15-Jul-18 08:17 47.500278 -116.815080 92 17062ft 275kts
15-Jul-18 08:18 47.496654 -116.701025 91 17060ft 280kts
15-Jul-18 08:19 47.492840 -116.585820 92 17060ft 282kts
15-Jul-18 08:20 47.488857 -116.470013 92 17060ft 283kts
15-Jul-18 08:21 47.484731 -116.353867 92 17060ft 282kts
15-Jul-18 08:22 47.480398 -116.241670 92 17194ft 278kts
15-Jul-18 08:23 47.476100 -116.126982 92 17196ft 281kts
15-Jul-18 08:24 47.471712 -116.011463 92 17196ft 282kts
15-Jul-18 08:25 47.467205 -115.895715 92 17196ft 282kts
15-Jul-18 08:26 47.462578 -115.780014 92 17196ft 282kts
15-Jul-18 08:27 47.457789 -115.664629 92 17197ft 283kts
15-Jul-18 08:28 47.450080 -115.548226 117 16266ft 291kts
15-Jul-18 08:29 47.396589 -115.463594 122 15015ft 285kts
15-Jul-18 08:30 47.359525 -115.361759 117 13735ft 281kts
15-Jul-18 08:31 47.331821 -115.258243 107 12467ft 277kts
15-Jul-18 08:32 47.309092 -115.150559 107 11194ft 273kts
15-Jul-18 08:33 47.287975 -115.050891 107 10993ft 243kts
15-Jul-18 08:34 47.267876 -114.956548 107 10999ft 243kts
15-Jul-18 08:35 47.247912 -114.863207 107 10993ft 230kts
15-Jul-18 08:36 47.230661 -114.782823 108 10897ft 216kts
15-Jul-18 08:37 47.212473 -114.698623 108 10983ft 214kts
15-Jul-18 08:38 47.194552 -114.615855 108 10999ft 207kts
15-Jul-18 08:39 47.174896 -114.538481 132 11013ft 197kts
15-Jul-18 08:40 47.142405 -114.481116 132 10200ft 170kts
15-Jul-18 08:41 47.113066 -114.430175 132 9206ft 159kts
15-Jul-18 08:42 47.084331 -114.380528 131 8278ft 164kts
15-Jul-18 08:43 47.054723 -114.329690 130 7310ft 165kts
15-Jul-18 08:44 47.027806 -114.283245 128 6430ft 133kts
15-Jul-18 08:45 47.003329 -114.241179 129 5653ft 135kts
15-Jul-18 08:46 46.979853 -114.200847 129 4912ft 133kts
15-Jul-18 08:47 46.956429 -114.160637 129 4197ft 123kts
15-Jul-18 08:48 46.934580 -114.123218 131 3543ft 120kts
15-Jul-18 08:49 46.916762 -114.092583 134 3211ft 43kts
15-Jul-18 08:50 46.913114 -114.084501 39 3211ft 14kts
15-Jul-18 08:51 46.913230 -114.084361 42 3211ft 0kts
15-Jul-18 08:52 46.915176 -114.081977 35 3211ft 6kts
15-Jul-18 08:53 46.914501 -114.080175 223 3210ft 7kts
15-Jul-18 08:54 46.914396 -114.080568 269 3211ft 0kts

Navigation Log

Ident Type
Flight plan parsing failed, navigation log unavailable